createdAt,value
2019-06-07T00:00:33.116Z,97.3
2019-06-07T00:02:03.419Z,97
2019-06-07T00:03:02.980Z,99.4
2019-06-07T00:04:03.394Z,97.5
2019-06-07T00:05:02.927Z,97.5
2019-06-07T00:06:02.790Z,97.7
2019-06-07T00:07:03.562Z,96.6
2019-06-07T00:08:29.451Z,96.6
2019-06-07T00:09:03.440Z,95.2
2019-06-07T00:10:03.397Z,95.6
2019-06-07T00:11:02.826Z,94.7
2019-06-07T00:12:03.320Z,93.3
2019-06-07T00:13:03.159Z,94.7
2019-06-07T00:14:02.951Z,93.3
2019-06-07T00:15:03.572Z,92.1
2019-06-07T00:16:02.927Z,92.8
2019-06-07T00:17:03.654Z,93.5
2019-06-07T00:18:02.729Z,92.6
2019-06-07T00:19:02.773Z,91.9
2019-06-07T00:20:03.665Z,90.5
2019-06-07T00:21:03.027Z,91.2
2019-06-07T00:22:34.024Z,90.7
2019-06-07T00:24:02.834Z,91.4
2019-06-07T00:25:03.576Z,92.8
2019-06-07T00:26:03.407Z,91.2
2019-06-07T00:27:03.019Z,91
2019-06-07T00:28:03.531Z,92.8
2019-06-07T00:29:03.114Z,92.8
2019-06-07T00:30:52.866Z,92.6
2019-06-07T00:32:03.197Z,93.5
2019-06-07T00:33:02.567Z,93.8
2019-06-07T00:34:03.204Z,94.2
2019-06-07T00:35:02.909Z,94.7
2019-06-07T00:36:03.230Z,93.3
2019-06-07T00:37:02.771Z,93.3
2019-06-07T00:38:02.653Z,93.1
2019-06-07T00:39:03.483Z,91.9
2019-06-07T00:40:32.467Z,91.9
2019-06-07T00:42:03.474Z,90
2019-06-07T00:43:02.812Z,89.8
2019-06-07T00:44:03.558Z,91
2019-06-07T00:45:03.446Z,90.5
2019-06-07T00:46:02.820Z,91
2019-06-07T00:47:03.607Z,90.3
2019-06-07T00:48:03.429Z,90
2019-06-07T00:49:02.773Z,90.3
2019-06-07T00:50:03.423Z,91.9
2019-06-07T00:51:03.051Z,91.7
2019-06-07T00:52:02.923Z,92.8
2019-06-07T00:53:32.959Z,91.9
2019-06-07T00:55:02.700Z,92.4
2019-06-07T00:56:03.277Z,91.9
2019-06-07T00:57:03.050Z,92.4
2019-06-07T00:58:02.841Z,91.2
2019-06-07T00:59:28.405Z,92.6
2019-06-07T01:01:03.498Z,94
2019-06-07T01:02:03.210Z,91.2
2019-06-07T01:03:02.837Z,92.8
2019-06-07T01:04:03.263Z,92.8
2019-06-07T01:05:03.068Z,94.5
2019-06-07T01:06:02.830Z,94
2019-06-07T01:07:03.440Z,95.9
2019-06-07T01:08:04.245Z,94.7
2019-06-07T01:09:02.848Z,93.8
2019-06-07T01:10:03.844Z,94
2019-06-07T01:11:03.179Z,93.8
2019-06-07T01:12:02.653Z,93.5
2019-06-07T01:13:03.298Z,94.5
2019-06-07T01:14:02.908Z,94
2019-06-07T01:15:02.714Z,94.7
2019-06-07T01:16:03.242Z,95.6
2019-06-07T01:18:34.411Z,96.3
2019-06-07T01:18:51.404Z,94.9
2019-06-07T01:20:03.666Z,95.6
2019-06-07T01:21:03.461Z,96.3
2019-06-07T01:22:03.133Z,95.2
2019-06-07T01:23:02.496Z,97
2019-06-07T01:24:12.939Z,96.1
2019-06-07T01:26:02.445Z,95.4
2019-06-07T01:27:03.260Z,94
2019-06-07T01:28:02.621Z,94.2
2019-06-07T01:29:03.524Z,93.8
2019-06-07T01:30:03.383Z,94
2019-06-07T01:31:02.984Z,93.3
2019-06-07T01:32:02.781Z,93.8
2019-06-07T01:33:03.844Z,94.2
2019-06-07T01:34:02.914Z,94
2019-06-07T01:35:03.816Z,94.2
2019-06-07T01:36:03.446Z,93.3
2019-06-07T01:37:02.433Z,92.1
2019-06-07T01:38:03.318Z,93.3
2019-06-07T01:39:03.039Z,93.1
2019-06-07T01:40:02.569Z,93.5
2019-06-07T01:41:03.356Z,94.5
2019-06-07T01:42:02.879Z,95.6
2019-06-07T01:43:03.505Z,94.5
2019-06-07T01:44:03.226Z,95.6
2019-06-07T01:45:03.382Z,94.7
2019-06-07T01:46:03.454Z,94.7
2019-06-07T01:47:02.814Z,96.1
2019-06-07T01:48:03.539Z,95.2
2019-06-07T01:49:03.291Z,93.8
2019-06-07T01:50:03.069Z,95.2
2019-06-07T01:51:05.133Z,93.5
2019-06-07T01:52:03.842Z,95.4
2019-06-07T01:53:02.724Z,97.3
2019-06-07T01:54:59.500Z,96.8
2019-06-07T01:56:02.770Z,98.4
2019-06-07T01:57:03.318Z,98.4
2019-06-07T01:58:02.768Z,95.6
2019-06-07T01:59:02.753Z,96.1
2019-06-07T02:00:03.330Z,96.3
2019-06-07T02:01:03.142Z,95.4
2019-06-07T02:02:03.569Z,94.7
2019-06-07T02:03:02.953Z,95.2
2019-06-07T02:04:03.690Z,92.6
2019-06-07T02:05:03.586Z,94.5
2019-06-07T02:06:02.993Z,94.5
2019-06-07T02:07:03.532Z,95.6
2019-06-07T02:08:02.961Z,94.9
2019-06-07T02:09:03.768Z,96.3
2019-06-07T02:10:03.399Z,94.7
2019-06-07T02:11:02.962Z,97
2019-06-07T02:12:02.601Z,97.3
2019-06-07T02:13:03.406Z,96.1
2019-06-07T02:14:03.035Z,97.3
2019-06-07T02:15:04.434Z,98.2
2019-06-07T02:16:03.423Z,98
2019-06-07T02:17:02.925Z,97.3
2019-06-07T02:18:03.630Z,97.5
2019-06-07T02:19:04.282Z,96.8
2019-06-07T02:20:02.840Z,97.3
2019-06-07T02:21:03.192Z,97.5
2019-06-07T02:22:03.243Z,97
2019-06-07T02:23:02.851Z,96.8
2019-06-07T02:24:03.710Z,98.7
2019-06-07T02:25:50.913Z,97.5
2019-06-07T02:27:03.207Z,98.7
2019-06-07T02:28:45.923Z,99.1
2019-06-07T02:31:00.825Z,99.8
2019-06-07T02:32:03.841Z,99.1
2019-06-07T02:33:03.093Z,100.5
2019-06-07T02:34:02.807Z,99.6
2019-06-07T02:35:03.855Z,100.8
2019-06-07T02:36:03.297Z,100.3
2019-06-07T02:37:02.962Z,101
2019-06-07T02:38:03.323Z,99.1
2019-06-07T02:39:02.942Z,101.9
2019-06-07T02:40:03.585Z,101
2019-06-07T02:41:03.256Z,99.8
2019-06-07T02:42:02.710Z,100.1
2019-06-07T02:43:03.487Z,99.8
2019-06-07T02:44:03.159Z,100.3
2019-06-07T02:45:02.715Z,98.7
2019-06-07T02:46:49.869Z,99.4
2019-06-07T02:48:03.364Z,99.6
2019-06-07T02:49:02.843Z,98.7
2019-06-07T02:50:03.736Z,98.7
2019-06-07T02:51:03.369Z,98.7
2019-06-07T02:52:02.689Z,97.3
2019-06-07T02:53:03.153Z,98.2
2019-06-07T02:54:02.936Z,97.5
2019-06-07T02:55:03.610Z,95.9
2019-06-07T02:56:59.447Z,96.6
2019-06-07T02:58:03.447Z,95.9
2019-06-07T02:59:03.058Z,97.3
2019-06-07T03:01:09.970Z,97.3
2019-06-07T03:02:03.195Z,98.2
2019-06-07T03:03:03.544Z,98.9
2019-06-07T03:04:02.967Z,96.6
2019-06-07T03:05:02.840Z,96.8
2019-06-07T03:06:03.348Z,97.3
2019-06-07T03:07:03.233Z,97.7
2019-06-07T03:08:02.777Z,97
2019-06-07T03:09:03.247Z,96.1
2019-06-07T03:10:03.065Z,99.4
2019-06-07T03:11:03.639Z,98.4
2019-06-07T03:12:03.267Z,100.8
2019-06-07T03:13:03.192Z,98
2019-06-07T03:14:03.355Z,100.8
2019-06-07T03:15:03.325Z,101
2019-06-07T03:16:02.727Z,99.6
2019-06-07T03:17:03.543Z,100.1
2019-06-07T03:18:03.355Z,101
2019-06-07T03:19:02.566Z,101
2019-06-07T03:20:02.452Z,101
2019-06-07T03:21:05.958Z,101.2
2019-06-07T03:22:02.705Z,101
2019-06-07T03:23:03.552Z,102.2
2019-06-07T03:24:03.034Z,103.3
2019-06-07T03:25:02.760Z,103.1
2019-06-07T03:26:03.347Z,103.1
2019-06-07T03:27:50.758Z,104.3
2019-06-07T03:29:03.117Z,105.9
2019-06-07T03:31:03.356Z,105.2
2019-06-07T03:32:03.323Z,106.4
2019-06-07T03:33:02.918Z,106.1
2019-06-07T03:34:03.422Z,106.4
2019-06-07T03:35:03.160Z,106.8
2019-06-07T03:36:27.647Z,107.1
2019-06-07T03:38:03.099Z,106.8
2019-06-07T03:39:03.793Z,105.7
2019-06-07T03:40:03.429Z,107.3
2019-06-07T03:41:02.604Z,106.1
2019-06-07T03:42:08.826Z,105.9
2019-06-07T03:43:02.932Z,108
2019-06-07T03:44:02.691Z,108
2019-06-07T03:45:03.357Z,108.2
2019-06-07T03:46:03.284Z,107.8
2019-06-07T03:47:03.320Z,107.5
2019-06-07T03:48:02.800Z,107.3
2019-06-07T03:49:02.917Z,107.1
2019-06-07T03:50:02.717Z,106.6
2019-06-07T03:51:28.459Z,108.2
2019-06-07T03:53:03.308Z,107.3
2019-06-07T03:54:03.033Z,111
2019-06-07T03:55:02.772Z,109.6
2019-06-07T03:56:03.601Z,110.8
2019-06-07T03:57:03.073Z,111.3
2019-06-07T03:58:50.729Z,111.5
2019-06-07T04:00:03.750Z,112
2019-06-07T04:01:02.967Z,111.3
2019-06-07T04:02:03.334Z,110.1
2019-06-07T04:03:02.807Z,110.1
2019-06-07T04:04:02.692Z,109.6
2019-06-07T04:05:03.335Z,109.6
2019-06-07T04:06:02.973Z,110.3
2019-06-07T04:07:03.287Z,111.5
2019-06-07T04:08:03.778Z,108.2
2019-06-07T04:09:02.892Z,109.2
2019-06-07T04:10:03.672Z,109.2
2019-06-07T04:11:03.153Z,107.8
2019-06-07T04:12:02.918Z,107.1
2019-06-07T04:13:03.366Z,106.8
2019-06-07T04:14:03.202Z,105.9
2019-06-07T04:15:02.940Z,106.1
2019-06-07T04:16:03.505Z,103.8
2019-06-07T04:17:03.045Z,106.1
2019-06-07T04:18:04.403Z,103.8
2019-06-07T04:19:03.161Z,105.7
2019-06-07T04:20:03.369Z,105.4
2019-06-07T04:21:03.711Z,104.3
2019-06-07T04:22:03.617Z,104.5
2019-06-07T04:23:03.518Z,104.3
2019-06-07T04:24:03.102Z,104
2019-06-07T04:25:02.948Z,101.7
2019-06-07T04:26:03.290Z,102.2
2019-06-07T04:27:02.795Z,101.7
2019-06-07T04:28:02.529Z,100.3
2019-06-07T04:30:08.297Z,100.8
2019-06-07T04:31:03.148Z,98.7
2019-06-07T04:32:04.745Z,99.8
2019-06-07T04:33:03.666Z,98.7
2019-06-07T04:34:03.310Z,97.7
2019-06-07T04:35:02.827Z,99.4
2019-06-07T04:36:02.802Z,99.1
2019-06-07T04:37:03.246Z,99.6
2019-06-07T04:38:02.779Z,100.3
2019-06-07T04:39:02.664Z,98.4
2019-06-07T04:40:03.261Z,100.3
2019-06-07T04:41:02.829Z,100.1
2019-06-07T04:42:03.447Z,99.6
2019-06-07T04:43:03.024Z,98.7
2019-06-07T04:44:03.043Z,99.6
2019-06-07T04:45:03.754Z,98.9
2019-06-07T04:46:02.598Z,98.9
2019-06-07T04:47:03.670Z,99.6
2019-06-07T04:48:03.143Z,97.7
2019-06-07T04:49:02.655Z,98.4
2019-06-07T04:50:03.262Z,98.2
2019-06-07T04:51:03.167Z,98.4
2019-06-07T04:52:03.571Z,98.2
2019-06-07T04:53:03.220Z,98.2
2019-06-07T04:54:02.604Z,97
2019-06-07T04:55:03.537Z,96.8
2019-06-07T04:56:02.952Z,95.6
2019-06-07T04:57:03.307Z,95.6
2019-06-07T04:58:02.958Z,96.6
2019-06-07T04:59:03.010Z,93.8
2019-06-07T05:01:03.947Z,95.6
2019-06-07T05:02:03.701Z,96.1
2019-06-07T05:03:03.398Z,94.9
2019-06-07T05:04:03.088Z,96.6
2019-06-07T05:05:03.769Z,95.2
2019-06-07T05:06:03.265Z,95.6
2019-06-07T05:07:02.747Z,96.3
2019-06-07T05:08:31.906Z,94.7
2019-06-07T05:10:02.894Z,94.5
2019-06-07T05:11:03.293Z,94.7
2019-06-07T05:12:03.185Z,95.2
2019-06-07T05:13:03.555Z,95.9
2019-06-07T05:14:03.365Z,96.8
2019-06-07T05:15:02.845Z,96.1
2019-06-07T05:16:03.518Z,96.1
2019-06-07T05:17:02.964Z,97
2019-06-07T05:18:02.609Z,94.9
2019-06-07T05:19:03.566Z,95.2
2019-06-07T05:20:03.175Z,97.3
2019-06-07T05:21:02.659Z,95.6
2019-06-07T05:22:05.717Z,96.8
2019-06-07T05:23:02.843Z,97.3
2019-06-07T05:24:11.208Z,98.7
2019-06-07T05:25:02.899Z,98.4
2019-06-07T05:26:03.604Z,98.4
2019-06-07T05:27:03.106Z,98.2
2019-06-07T05:28:02.878Z,97.5
2019-06-07T05:29:03.505Z,97
2019-06-07T05:31:08.434Z,96.6
2019-06-07T05:32:03.403Z,97.7
2019-06-07T05:33:02.895Z,96.6
2019-06-07T05:34:02.718Z,96.3
2019-06-07T05:35:03.971Z,98.2
2019-06-07T05:36:02.799Z,96.8
2019-06-07T05:37:12.527Z,97.7
2019-06-07T05:38:03.315Z,95.4
2019-06-07T05:39:02.907Z,96.3
2019-06-07T05:40:03.472Z,95.9
2019-06-07T05:41:02.836Z,97.3
2019-06-07T05:42:02.740Z,96.1
2019-06-07T05:43:03.548Z,96.3
2019-06-07T05:44:15.456Z,98.2
2019-06-07T05:46:03.531Z,98.9
2019-06-07T05:47:03.023Z,98.9
2019-06-07T05:48:03.003Z,98.7
2019-06-07T05:49:03.320Z,98.4
2019-06-07T05:50:04.318Z,99.6
2019-06-07T05:51:03.469Z,99.8
2019-06-07T05:52:03.132Z,97.7
2019-06-07T05:53:03.067Z,98
2019-06-07T05:54:02.935Z,97
2019-06-07T05:55:03.564Z,97.5
2019-06-07T05:56:05.050Z,96.8
2019-06-07T05:57:02.875Z,97.7
2019-06-07T05:58:02.804Z,96.1
2019-06-07T05:59:02.496Z,96.3
2019-06-07T06:00:03.177Z,95.9
2019-06-07T06:02:21.671Z,96.6
2019-06-07T06:04:02.849Z,96.3
2019-06-07T06:05:03.566Z,96.8
2019-06-07T06:06:03.279Z,96.3
2019-06-07T06:07:03.064Z,98
2019-06-07T06:08:03.277Z,95.4
2019-06-07T06:09:14.554Z,97
2019-06-07T06:11:03.280Z,96.1
2019-06-07T06:12:02.907Z,94.5
2019-06-07T06:13:03.503Z,95.6
2019-06-07T06:14:08.881Z,94.2
2019-06-07T06:15:03.022Z,95.2
2019-06-07T06:16:03.123Z,94.7
2019-06-07T06:17:02.943Z,94.7
2019-06-07T06:18:02.758Z,92.8
2019-06-07T06:19:03.144Z,93.5
2019-06-07T06:20:03.673Z,93.5
2019-06-07T06:21:21.029Z,92.4
2019-06-07T06:23:03.385Z,90.7
2019-06-07T06:24:03.301Z,90.3
2019-06-07T06:25:35.617Z,89.8
2019-06-07T06:28:15.736Z,88.9
2019-06-07T06:29:03.607Z,92.1
2019-06-07T06:30:03.411Z,93.8
2019-06-07T06:31:02.803Z,94.2
2019-06-07T06:32:58.972Z,95.4
2019-06-07T06:34:02.814Z,93.1
2019-06-07T06:35:03.519Z,92.6
2019-06-07T06:36:02.918Z,92.4
2019-06-07T06:37:03.039Z,94.9
2019-06-07T06:38:03.453Z,91.2
2019-06-07T06:39:02.982Z,92.4
2019-06-07T06:40:03.451Z,92.8
2019-06-07T06:41:17.293Z,92.8
2019-06-07T06:43:02.342Z,94.7
2019-06-07T06:44:03.424Z,93.5
2019-06-07T06:45:03.488Z,94.7
2019-06-07T06:46:03.314Z,94.2
2019-06-07T06:47:03.168Z,93.5
2019-06-07T06:48:02.662Z,95.2
2019-06-07T06:49:03.647Z,92.6
2019-06-07T06:50:03.360Z,93.8
2019-06-07T06:51:02.938Z,94.9
2019-06-07T06:52:03.737Z,94.5
2019-06-07T06:53:03.273Z,95.4
2019-06-07T06:54:03.452Z,96.8
2019-06-07T06:55:03.638Z,97
2019-06-07T06:56:02.759Z,95.9
2019-06-07T06:57:20.665Z,97.5
2019-06-07T06:59:43.768Z,99.1
2019-06-07T07:01:07.600Z,100.8
2019-06-07T07:02:02.932Z,98.7
2019-06-07T07:04:13.709Z,100.1
2019-06-07T07:05:02.891Z,99.1
2019-06-07T07:06:27.345Z,100.1
2019-06-07T07:08:02.792Z,98.9
2019-06-07T07:09:03.241Z,100.3
2019-06-07T07:10:03.479Z,102.6
2019-06-07T07:11:03.202Z,102.4
2019-06-07T07:12:15.263Z,102.9
2019-06-07T07:14:03.504Z,101.7
2019-06-07T07:15:03.738Z,101.7
2019-06-07T07:16:03.072Z,102.4
2019-06-07T07:17:03.370Z,101.5
2019-06-07T07:18:09.281Z,101.7
2019-06-07T07:19:03.714Z,101.5
2019-06-07T07:20:03.422Z,102.9
2019-06-07T07:21:03.020Z,101.7
2019-06-07T07:22:03.666Z,102.4
2019-06-07T07:23:03.245Z,105.9
2019-06-07T07:24:22.731Z,102.6
2019-06-07T07:26:03.548Z,104.7
2019-06-07T07:27:02.484Z,101.9
2019-06-07T07:28:03.522Z,103.3
2019-06-07T07:29:03.541Z,103.1
2019-06-07T07:30:37.804Z,100.1
2019-06-07T07:32:02.767Z,99.8
2019-06-07T07:33:07.371Z,100.1
2019-06-07T07:34:37.902Z,101.5
2019-06-07T07:36:40.150Z,101.7
2019-06-07T07:38:03.563Z,101
2019-06-07T07:39:06.861Z,103.6
2019-06-07T07:41:16.219Z,104
2019-06-07T07:42:22.132Z,102.6
2019-06-07T07:44:10.164Z,101.9
2019-06-07T07:45:03.434Z,102.2
2019-06-07T07:46:30.649Z,101.9
2019-06-07T07:48:19.019Z,102.6
2019-06-07T07:50:03.544Z,102.4
2019-06-07T07:51:03.763Z,101.7
2019-06-07T07:52:02.627Z,100.5
2019-06-07T07:53:03.384Z,100.8
2019-06-07T07:54:11.614Z,101
2019-06-07T07:55:03.320Z,100.1
2019-06-07T07:56:05.082Z,99.1
2019-06-07T07:57:03.039Z,98.7
2019-06-07T07:58:02.477Z,99.6
2019-06-07T07:59:03.906Z,100.1
2019-06-07T08:01:11.394Z,98.4
2019-06-07T08:02:03.491Z,97.5
2019-06-07T08:03:04.982Z,98.2
2019-06-07T08:04:02.655Z,97.3
2019-06-07T08:05:47.089Z,97.5
2019-06-07T08:07:03.617Z,97.3
2019-06-07T08:08:08.211Z,94.9
2019-06-07T08:09:03.791Z,94.7
2019-06-07T08:10:04.864Z,95.4
2019-06-07T08:11:02.928Z,94
2019-06-07T08:12:03.634Z,94.2
2019-06-07T08:13:28.259Z,93.5
2019-06-07T08:15:04.497Z,94
2019-06-07T08:16:19.257Z,94.9
2019-06-07T08:17:03.610Z,93.5
2019-06-07T08:18:05.126Z,93.5
2019-06-07T08:19:05.443Z,94.5
2019-06-07T08:20:03.589Z,93.8
2019-06-07T08:21:27.459Z,93.1
2019-06-07T08:23:03.397Z,94.2
2019-06-07T08:24:05.882Z,92.4
2019-06-07T08:25:04.808Z,92.4
2019-06-07T08:26:03.313Z,94.2
2019-06-07T08:27:27.277Z,93.5
2019-06-07T08:29:03.767Z,96.1
2019-06-07T08:31:07.100Z,94
2019-06-07T08:32:03.056Z,94.5
2019-06-07T08:33:27.362Z,95.6
2019-06-07T08:35:07.267Z,94
2019-06-07T08:36:42.839Z,94
2019-06-07T08:38:57.754Z,92.8
2019-06-07T08:40:03.346Z,93.8
2019-06-07T08:41:13.132Z,92.1
2019-06-07T08:42:42.380Z,91.9
2019-06-07T08:43:21.481Z,92.4
2019-06-07T08:44:25.989Z,90.7
2019-06-07T08:46:08.388Z,90.7
2019-06-07T08:47:21.499Z,92.1
2019-06-07T08:48:30.551Z,91
2019-06-07T08:50:08.416Z,91.2
2019-06-07T08:51:09.066Z,93.5
2019-06-07T08:52:12.947Z,93.1
2019-06-07T08:53:12.909Z,94.2
2019-06-07T08:54:23.782Z,94.5
2019-06-07T08:56:11.998Z,94.2
2019-06-07T08:57:22.282Z,94
2019-06-07T08:59:12.018Z,95.2
2019-06-07T09:00:48.377Z,94.9
2019-06-07T09:02:26.119Z,94.9
2019-06-07T09:04:11.784Z,96.6
2019-06-07T09:05:13.095Z,96.6
2019-06-07T09:07:21.628Z,97.3
2019-06-07T09:08:31.216Z,96.6
2019-06-07T09:10:16.024Z,97.5
2019-06-07T09:11:11.895Z,97.7
2019-06-07T09:12:12.037Z,95.6
2019-06-07T09:13:12.386Z,98.2
2019-06-07T09:14:09.696Z,96.1
2019-06-07T09:15:24.769Z,98.2
2019-06-07T09:16:09.316Z,97.5
2019-06-07T09:17:13.152Z,98
2019-06-07T09:18:45.418Z,97
2019-06-07T09:20:38.841Z,96.8
2019-06-07T09:22:11.951Z,96.3
2019-06-07T09:23:18.241Z,98.2
2019-06-07T09:24:12.497Z,96.1
2019-06-07T09:25:22.130Z,96.3
2019-06-07T09:26:19.330Z,97.7
2019-06-07T09:27:10.702Z,95.4
2019-06-07T09:28:21.139Z,96.6
2019-06-07T09:29:12.439Z,95.9
2019-06-07T09:30:19.246Z,95.6
2019-06-07T09:31:13.273Z,95.9
2019-06-07T09:32:18.884Z,95.4
2019-06-07T09:33:09.287Z,97
2019-06-07T09:34:15.871Z,97.7
2019-06-07T09:35:18.105Z,95.6
2019-06-07T09:36:13.966Z,97
2019-06-07T09:38:26.630Z,96.6
2019-06-07T09:40:28.066Z,95.9
2019-06-07T09:41:09.997Z,95.2
2019-06-07T09:42:13.025Z,95.6
2019-06-07T09:44:26.785Z,95.9
2019-06-07T09:45:14.309Z,96.6
2019-06-07T09:46:17.175Z,96.1
2019-06-07T09:47:33.384Z,97.3
2019-06-07T09:49:18.647Z,97.5
2019-06-07T09:49:33.738Z,95.2
2019-06-07T09:51:20.911Z,95.4
2019-06-07T09:52:11.335Z,96.3
2019-06-07T09:53:23.853Z,94
2019-06-07T09:55:25.647Z,95.6
2019-06-07T09:56:12.530Z,95.4
2019-06-07T09:57:18.235Z,94.9
2019-06-07T09:58:54.733Z,95.6
2019-06-07T10:00:43.267Z,95.6
2019-06-07T10:02:14.059Z,96.1
2019-06-07T10:03:23.076Z,99.1
2019-06-07T10:04:31.842Z,98.2
2019-06-07T10:06:14.227Z,100.3
2019-06-07T10:07:32.371Z,99.1
2019-06-07T10:12:02.837Z,103.1
2019-06-07T10:13:09.924Z,103.1
2019-06-07T10:14:03.016Z,101.9
2019-06-07T10:15:05.471Z,102.2
2019-06-07T10:16:03.028Z,102.2
2019-06-07T10:17:04.806Z,103.8
2019-06-07T10:18:03.048Z,105.2
2019-06-07T10:19:09.857Z,103.8
2019-06-07T10:20:07.591Z,106.8
2019-06-07T10:21:05.893Z,107.5
2019-06-07T10:22:05.545Z,106.4
2019-06-07T10:23:05.313Z,107.3
2019-06-07T10:24:03.752Z,107.1
2019-06-07T10:25:08.605Z,109.9
2019-06-07T10:26:04.295Z,108.5
2019-06-07T10:27:04.279Z,108.5
2019-06-07T10:28:04.114Z,110.3
2019-06-07T10:29:10.442Z,108.2
2019-06-07T10:30:04.288Z,108
2019-06-07T10:31:11.406Z,108.5
2019-06-07T10:32:04.489Z,107.1
2019-06-07T10:33:08.703Z,107.8
2019-06-07T10:34:04.380Z,108.7
2019-06-07T10:35:12.669Z,107.5
2019-06-07T10:37:15.940Z,108.9
2019-06-07T10:38:04.868Z,111.5
2019-06-07T10:39:03.204Z,110.1
2019-06-07T10:40:03.212Z,112.4
2019-06-07T10:41:03.169Z,110.8
2019-06-07T10:42:09.747Z,113.8
2019-06-07T10:43:03.250Z,112.7
2019-06-07T10:44:04.249Z,116
2019-06-07T10:45:12.167Z,114.5
2019-06-07T10:46:03.917Z,115.2
2019-06-07T10:47:06.144Z,116.7
2019-06-07T10:48:03.858Z,115.2
2019-06-07T10:49:04.019Z,115.2
2019-06-07T10:50:04.085Z,116.7
2019-06-07T10:51:04.450Z,115.2
2019-06-07T10:52:13.315Z,118.8
2019-06-07T10:53:04.526Z,114.8
2019-06-07T10:54:31.019Z,117.4
2019-06-07T10:56:04.944Z,116.2
2019-06-07T10:57:03.211Z,116.2
2019-06-07T10:58:03.253Z,117.1
2019-06-07T10:59:03.356Z,116.9
2019-06-07T11:00:05.466Z,113.8
2019-06-07T11:01:03.600Z,114.3
2019-06-07T11:02:03.720Z,111.7
2019-06-07T11:03:03.851Z,112.2
2019-06-07T11:04:03.643Z,110.8
2019-06-07T11:05:03.992Z,109.9
2019-06-07T11:06:03.919Z,110.6
2019-06-07T11:07:08.284Z,108.5
2019-06-07T11:08:04.116Z,109.4
2019-06-07T11:09:03.981Z,110.1
2019-06-07T11:10:20.502Z,106.8
2019-06-07T11:11:04.032Z,107.3
2019-06-07T11:12:04.497Z,107.3
2019-06-07T11:13:04.326Z,106.6
2019-06-07T11:14:04.566Z,106.6
2019-06-07T11:15:04.807Z,105.9
2019-06-07T11:16:04.939Z,107.3
2019-06-07T11:17:02.826Z,106.1
2019-06-07T11:18:02.932Z,105.4
2019-06-07T11:19:03.356Z,103.8
2019-06-07T11:20:03.386Z,103.6
2019-06-07T11:21:02.803Z,105.2
2019-06-07T11:22:03.499Z,103.6
2019-06-07T11:23:03.398Z,104.5
2019-06-07T11:24:02.910Z,105
2019-06-07T11:25:04.356Z,105.4
2019-06-07T11:26:03.117Z,102.9
2019-06-07T11:27:02.646Z,102.2
2019-06-07T11:28:03.476Z,103.3
2019-06-07T11:29:02.930Z,102.4
2019-06-07T11:30:02.831Z,101.7
2019-06-07T11:31:03.265Z,102.9
2019-06-07T11:32:02.987Z,102.6
2019-06-07T11:33:02.809Z,100.8
2019-06-07T11:34:03.530Z,102.6
2019-06-07T11:35:03.081Z,100.8
2019-06-07T11:36:03.076Z,100.5
2019-06-07T11:37:03.266Z,100.8
2019-06-07T11:38:02.734Z,100.5
2019-06-07T11:39:03.391Z,100.5
2019-06-07T11:40:02.928Z,98.9
2019-06-07T11:41:03.633Z,98.2
2019-06-07T11:42:03.451Z,98.7
2019-06-07T11:43:02.660Z,96.8
2019-06-07T11:44:03.558Z,98
2019-06-07T11:45:03.135Z,95.2
2019-06-07T11:46:02.861Z,95.2
2019-06-07T11:47:03.576Z,95.4
2019-06-07T11:48:03.560Z,94
2019-06-07T11:49:03.335Z,96.6
2019-06-07T11:50:02.754Z,96.8
2019-06-07T11:51:02.655Z,96.3
2019-06-07T11:52:03.557Z,99.6
2019-06-07T11:53:03.045Z,97.3
2019-06-07T11:54:02.730Z,99.8
2019-06-07T11:55:03.593Z,99.1
2019-06-07T11:56:02.980Z,97.5
2019-06-07T11:57:03.558Z,98.4
2019-06-07T11:58:03.456Z,98.9
2019-06-07T11:59:03.054Z,98.4
2019-06-07T12:00:02.836Z,99.4
2019-06-07T12:01:03.235Z,98.9
2019-06-07T12:02:02.791Z,98.7
2019-06-07T12:03:02.735Z,98.9
2019-06-07T12:04:03.567Z,98.9
2019-06-07T12:05:02.741Z,98.9
2019-06-07T12:06:03.496Z,99.4
2019-06-07T12:07:03.233Z,99.4
2019-06-07T12:08:02.616Z,99.6
2019-06-07T12:09:03.424Z,98.4
2019-06-07T12:10:03.255Z,98.7
2019-06-07T12:11:03.194Z,98.4
2019-06-07T12:12:03.210Z,98.7
2019-06-07T12:13:01.753Z,99.1
2019-06-07T12:14:03.323Z,100.1
2019-06-07T12:15:03.245Z,97.5
2019-06-07T12:16:02.708Z,100.1
2019-06-07T12:17:02.836Z,100.3
2019-06-07T12:18:02.863Z,100.1
2019-06-07T12:19:03.410Z,101
2019-06-07T12:20:03.642Z,100.5
2019-06-07T12:21:02.678Z,99.8
2019-06-07T12:22:03.336Z,99.8
2019-06-07T12:23:03.204Z,98.2
2019-06-07T12:24:04.126Z,97.7
2019-06-07T12:25:06.231Z,98.9
2019-06-07T12:26:02.739Z,98.9
2019-06-07T12:27:03.754Z,97.7
2019-06-07T12:28:03.156Z,98.7
2019-06-07T12:29:03.113Z,99.4
2019-06-07T12:30:28.251Z,97
2019-06-07T12:31:03.120Z,97.7
2019-06-07T12:32:02.741Z,99.4
2019-06-07T12:33:03.820Z,99.4
2019-06-07T12:34:02.708Z,99.8
2019-06-07T12:35:02.468Z,99.1
2019-06-07T12:36:03.436Z,101.5
2019-06-07T12:37:02.845Z,100.1
2019-06-07T12:38:03.523Z,101.7
2019-06-07T12:39:03.243Z,102.2
2019-06-07T12:40:02.688Z,101.2
2019-06-07T12:41:03.317Z,100.3
2019-06-07T12:42:02.945Z,101.5
2019-06-07T12:43:02.733Z,100.5
2019-06-07T12:44:03.714Z,99.4
2019-06-07T12:45:02.957Z,99.1
2019-06-07T12:46:03.670Z,99.1
2019-06-07T12:47:03.018Z,98.2
2019-06-07T12:48:03.149Z,98
2019-06-07T12:49:02.951Z,98.2
2019-06-07T12:50:03.277Z,97.3
2019-06-07T12:51:03.504Z,96.6
2019-06-07T12:52:03.194Z,96.3
2019-06-07T12:53:03.046Z,94.7
2019-06-07T12:54:02.780Z,96.3
2019-06-07T12:55:03.231Z,94.9
2019-06-07T12:56:02.934Z,96.1
2019-06-07T12:57:03.651Z,96.3
2019-06-07T12:58:03.304Z,97.3
2019-06-07T12:59:03.068Z,97
2019-06-07T13:00:03.715Z,97.7
2019-06-07T13:01:02.826Z,97.5
2019-06-07T13:02:02.973Z,97.7
2019-06-07T13:03:02.950Z,98.4
2019-06-07T13:04:03.693Z,96.3
2019-06-07T13:05:05.330Z,98.9
2019-06-07T13:06:03.372Z,96.6
2019-06-07T13:07:02.572Z,98.4
2019-06-07T13:08:03.419Z,98
2019-06-07T13:09:03.092Z,97.3
2019-06-07T13:10:02.887Z,98.9
2019-06-07T13:11:31.890Z,98.4
2019-06-07T13:13:03.580Z,98.9
2019-06-07T13:14:03.101Z,99.1
2019-06-07T13:15:02.899Z,98.2
2019-06-07T13:16:04.250Z,97
2019-06-07T13:17:03.180Z,97.3
2019-06-07T13:18:02.677Z,95.6
2019-06-07T13:19:02.894Z,95.6
2019-06-07T13:20:03.203Z,95.6
2019-06-07T13:21:03.789Z,98.7
2019-06-07T13:22:03.362Z,97.3
2019-06-07T13:23:02.542Z,97.5
2019-06-07T13:24:02.661Z,98.4
2019-06-07T13:25:03.381Z,98.9
2019-06-07T13:26:03.066Z,98.7
2019-06-07T13:27:02.595Z,99.1
2019-06-07T13:28:03.256Z,99.1
2019-06-07T13:29:02.784Z,100.1
2019-06-07T13:30:11.322Z,100.1
2019-06-07T13:31:03.453Z,99.1
2019-06-07T13:32:02.855Z,99.1
2019-06-07T13:33:02.588Z,100.3
2019-06-07T13:34:03.127Z,100.5
2019-06-07T13:35:03.479Z,98.9
2019-06-07T13:36:03.738Z,100.3
2019-06-07T13:37:03.722Z,98
2019-06-07T13:38:02.765Z,98.9
2019-06-07T13:39:03.139Z,99.6
2019-06-07T13:40:03.450Z,98.2
2019-06-07T13:41:03.033Z,100.1
2019-06-07T13:42:03.243Z,98
2019-06-07T13:43:03.081Z,100.5
2019-06-07T13:44:03.384Z,99.6
2019-06-07T13:45:03.053Z,100.1
2019-06-07T13:46:02.431Z,101.5
2019-06-07T13:47:03.358Z,99.8
2019-06-07T13:48:03.071Z,101.9
2019-06-07T13:49:03.503Z,101.7
2019-06-07T13:50:03.791Z,100.5
2019-06-07T13:51:03.048Z,100.5
2019-06-07T13:52:02.849Z,100.1
2019-06-07T13:53:03.232Z,99.4
2019-06-07T13:54:02.914Z,100.8
2019-06-07T13:55:03.555Z,99.8
2019-06-07T13:56:03.361Z,99.6
2019-06-07T13:57:03.588Z,101
2019-06-07T13:58:03.705Z,98.7
2019-06-07T13:59:03.614Z,101.2
2019-06-07T14:00:11.735Z,98.2
2019-06-07T14:01:03.560Z,100.1
2019-06-07T14:02:03.191Z,100.8
2019-06-07T14:03:03.590Z,101.9
2019-06-07T14:04:03.655Z,101
2019-06-07T14:05:02.970Z,103.8
2019-06-07T14:06:03.324Z,102.6
2019-06-07T14:07:03.249Z,104.3
2019-06-07T14:08:03.590Z,103.8
2019-06-07T14:09:02.946Z,103.3
2019-06-07T14:10:03.485Z,103.1
2019-06-07T14:11:02.920Z,103.1
2019-06-07T14:12:03.539Z,102.6
2019-06-07T14:13:02.812Z,102.6
2019-06-07T14:14:02.990Z,102.6
2019-06-07T14:15:03.966Z,104
2019-06-07T14:16:03.401Z,104.7
2019-06-07T14:17:02.961Z,104.7
2019-06-07T14:18:02.745Z,105
2019-06-07T14:19:03.188Z,104.3
2019-06-07T14:20:04.106Z,103.1
2019-06-07T14:21:03.437Z,102.2
2019-06-07T14:22:03.542Z,101.5
2019-06-07T14:23:03.027Z,100.1
2019-06-07T14:24:03.048Z,101.2
2019-06-07T14:25:03.450Z,100.3
2019-06-07T14:26:03.593Z,99.6
2019-06-07T14:27:03.088Z,101.5
2019-06-07T14:28:12.222Z,100.8
2019-06-07T14:29:02.841Z,101.9
2019-06-07T14:30:03.636Z,101.7
2019-06-07T14:31:02.817Z,101.5
2019-06-07T14:32:02.889Z,101
2019-06-07T14:33:02.784Z,101.7
2019-06-07T14:34:03.826Z,101.5